sensor_id;sensor_type;location;lat;lon;timestamp;pressure;altitude;pressure_sealevel;temperature;humidity
22753;BME280;11543;43.144;24.684;2023-05-03T00:00:40;99190.69;;;14.78;47.10
22753;BME280;11543;43.144;24.684;2023-05-03T00:03:06;99187.69;;;14.48;47.78
22753;BME280;11543;43.144;24.684;2023-05-03T00:05:31;99179.09;;;14.28;48.76
22753;BME280;11543;43.144;24.684;2023-05-03T00:07:57;99191.06;;;14.18;49.00
22753;BME280;11543;43.144;24.684;2023-05-03T00:10:24;99186.69;;;14.25;48.98
22753;BME280;11543;43.144;24.684;2023-05-03T00:12:49;99178.59;;;14.17;49.19
22753;BME280;11543;43.144;24.684;2023-05-03T00:15:15;99171.88;;;13.96;49.67
22753;BME280;11543;43.144;24.684;2023-05-03T00:17:41;99180.97;;;13.95;49.97
22753;BME280;11543;43.144;24.684;2023-05-03T00:20:07;99176.91;;;14.08;50.18
22753;BME280;11543;43.144;24.684;2023-05-03T00:22:33;99179.59;;;14.24;50.21
22753;BME280;11543;43.144;24.684;2023-05-03T00:25:01;99188.03;;;14.21;49.82
22753;BME280;11543;43.144;24.684;2023-05-03T00:27:27;99169.47;;;13.85;50.32
22753;BME280;11543;43.144;24.684;2023-05-03T00:29:53;99165.75;;;13.70;51.37
22753;BME280;11543;43.144;24.684;2023-05-03T00:32:19;99182.63;;;13.80;51.20
22753;BME280;11543;43.144;24.684;2023-05-03T00:34:51;99187.03;;;13.97;51.08
22753;BME280;11543;43.144;24.684;2023-05-03T00:37:17;99184.50;;;14.12;50.39
22753;BME280;11543;43.144;24.684;2023-05-03T00:39:42;99183.31;;;14.23;50.27
22753;BME280;11543;43.144;24.684;2023-05-03T00:42:08;99175.19;;;14.31;50.20
22753;BME280;11543;43.144;24.684;2023-05-03T00:44:33;99170.81;;;14.38;50.13
22753;BME280;11543;43.144;24.684;2023-05-03T00:46:59;99180.44;;;14.49;49.98
22753;BME280;11543;43.144;24.684;2023-05-03T00:49:25;99171.16;;;14.51;49.43
22753;BME280;11543;43.144;24.684;2023-05-03T00:51:52;99175.34;;;14.54;49.23
22753;BME280;11543;43.144;24.684;2023-05-03T00:54:18;99169.13;;;14.53;49.24
22753;BME280;11543;43.144;24.684;2023-05-03T00:56:45;99174.19;;;14.32;49.39
22753;BME280;11543;43.144;24.684;2023-05-03T00:59:11;99177.91;;;14.15;50.43
22753;BME280;11543;43.144;24.684;2023-05-03T01:01:37;99165.78;;;14.02;50.63
22753;BME280;11543;43.144;24.684;2023-05-03T01:04:04;99177.75;;;14.08;50.52
22753;BME280;11543;43.144;24.684;2023-05-03T01:09:07;99169.50;;;14.10;50.43
22753;BME280;11543;43.144;24.684;2023-05-03T01:14:31;99178.28;;;13.95;50.24
22753;BME280;11543;43.144;24.684;2023-05-03T01:17:05;99168.78;;;13.75;50.17
22753;BME280;11543;43.144;24.684;2023-05-03T01:19:36;99177.19;;;13.64;50.20
22753;BME280;11543;43.144;24.684;2023-05-03T01:25:12;99162.28;;;13.19;52.24
22753;BME280;11543;43.144;24.684;2023-05-03T01:27:39;99166.41;;;13.05;53.13
22753;BME280;11543;43.144;24.684;2023-05-03T01:30:09;99177.63;;;12.93;53.34
22753;BME280;11543;43.144;24.684;2023-05-03T01:32:47;99165.50;;;12.89;53.33
22753;BME280;11543;43.144;24.684;2023-05-03T01:35:39;99178.75;;;13.16;53.34
22753;BME280;11543;43.144;24.684;2023-05-03T01:38:07;99164.69;;;13.30;53.29
22753;BME280;11543;43.144;24.684;2023-05-03T01:40:41;99159.63;;;13.27;52.69
22753;BME280;11543;43.144;24.684;2023-05-03T01:43:09;99169.03;;;13.23;52.48
22753;BME280;11543;43.144;24.684;2023-05-03T01:45:35;99171.41;;;13.34;52.60
22753;BME280;11543;43.144;24.684;2023-05-03T01:48:01;99158.28;;;13.39;52.47
22753;BME280;11543;43.144;24.684;2023-05-03T01:50:26;99155.63;;;13.48;52.36
22753;BME280;11543;43.144;24.684;2023-05-03T01:52:52;99161.34;;;13.53;51.89
22753;BME280;11543;43.144;24.684;2023-05-03T01:55:18;99161.00;;;13.56;51.78
22753;BME280;11543;43.144;24.684;2023-05-03T01:57:43;99159.31;;;13.47;51.69
22753;BME280;11543;43.144;24.684;2023-05-03T02:00:09;99170.78;;;13.57;51.97
22753;BME280;11543;43.144;24.684;2023-05-03T02:02:35;99175.19;;;13.66;51.64
22753;BME280;11543;43.144;24.684;2023-05-03T02:05:01;99159.69;;;13.76;51.36
22753;BME280;11543;43.144;24.684;2023-05-03T02:07:26;99148.56;;;13.71;51.27
22753;BME280;11543;43.144;24.684;2023-05-03T02:09:52;99128.66;;;13.39;51.75
22753;BME280;11543;43.144;24.684;2023-05-03T02:12:17;99138.09;;;13.44;51.99
22753;BME280;11543;43.144;24.684;2023-05-03T02:14:43;99127.16;;;13.53;52.02
22753;BME280;11543;43.144;24.684;2023-05-03T02:17:08;99127.66;;;13.65;51.65
22753;BME280;11543;43.144;24.684;2023-05-03T02:19:35;99142.84;;;13.82;51.59
22753;BME280;11543;43.144;24.684;2023-05-03T02:22:01;99149.56;;;13.86;51.34
22753;BME280;11543;43.144;24.684;2023-05-03T02:24:27;99157.03;;;14.00;51.06
22753;BME280;11543;43.144;24.684;2023-05-03T02:26:54;99143.00;;;13.81;51.34
22753;BME280;11543;43.144;24.684;2023-05-03T02:29:19;99132.72;;;13.60;52.06
22753;BME280;11543;43.144;24.684;2023-05-03T02:31:45;99136.41;;;13.51;52.99
22753;BME280;11543;43.144;24.684;2023-05-03T02:34:10;99131.19;;;13.41;53.19
22753;BME280;11543;43.144;24.684;2023-05-03T02:36:36;99121.88;;;13.27;53.14
22753;BME280;11543;43.144;24.684;2023-05-03T02:39:02;99140.41;;;13.22;53.71
22753;BME280;11543;43.144;24.684;2023-05-03T02:41:27;99154.91;;;13.37;53.53
22753;BME280;11543;43.144;24.684;2023-05-03T02:43:53;99127.81;;;13.47;53.31
22753;BME280;11543;43.144;24.684;2023-05-03T02:46:18;99123.09;;;13.57;53.30
22753;BME280;11543;43.144;24.684;2023-05-03T02:48:44;99132.03;;;13.66;53.19
22753;BME280;11543;43.144;24.684;2023-05-03T02:51:09;99141.81;;;13.75;52.67
22753;BME280;11543;43.144;24.684;2023-05-03T02:53:35;99132.03;;;13.82;52.27
22753;BME280;11543;43.144;24.684;2023-05-03T02:56:00;99126.66;;;13.82;52.16
22753;BME280;11543;43.144;24.684;2023-05-03T02:58:26;99135.09;;;13.87;52.10
22753;BME280;11543;43.144;24.684;2023-05-03T03:00:51;99123.63;;;13.77;51.57
22753;BME280;11543;43.144;24.684;2023-05-03T03:03:17;99140.47;;;13.63;51.07
22753;BME280;11543;43.144;24.684;2023-05-03T03:05:43;99154.28;;;13.60;51.16
22753;BME280;11543;43.144;24.684;2023-05-03T03:08:08;99157.31;;;13.49;51.11
22753;BME280;11543;43.144;24.684;2023-05-03T03:10:34;99162.00;;;13.38;51.55
22753;BME280;11543;43.144;24.684;2023-05-03T03:12:59;99139.41;;;13.31;52.02
22753;BME280;11543;43.144;24.684;2023-05-03T03:15:25;99132.34;;;13.38;51.99
22753;BME280;11543;43.144;24.684;2023-05-03T03:17:50;99138.75;;;13.46;51.89
22753;BME280;11543;43.144;24.684;2023-05-03T03:20:16;99154.63;;;13.57;51.44
22753;BME280;11543;43.144;24.684;2023-05-03T03:22:41;99150.59;;;13.69;51.45
22753;BME280;11543;43.144;24.684;2023-05-03T03:25:09;99148.56;;;13.71;51.28
22753;BME280;11543;43.144;24.684;2023-05-03T03:27:35;99149.56;;;13.70;51.55
22753;BME280;11543;43.144;24.684;2023-05-03T03:30:00;99157.81;;;13.68;51.62
22753;BME280;11543;43.144;24.684;2023-05-03T03:32:26;99162.03;;;13.63;51.79
22753;BME280;11543;43.144;24.684;2023-05-03T03:34:52;99152.94;;;13.56;52.11
22753;BME280;11543;43.144;24.684;2023-05-03T03:37:18;99161.34;;;13.45;52.40
22753;BME280;11543;43.144;24.684;2023-05-03T03:39:43;99151.56;;;13.35;52.55
22753;BME280;11543;43.144;24.684;2023-05-03T03:42:10;99157.94;;;13.26;53.00
22753;BME280;11543;43.144;24.684;2023-05-03T03:44:35;99157.19;;;13.16;53.42
22753;BME280;11543;43.144;24.684;2023-05-03T03:47:01;99162.72;;;13.06;54.17
22753;BME280;11543;43.144;24.684;2023-05-03T03:49:26;99157.75;;;12.94;55.24
22753;BME280;11543;43.144;24.684;2023-05-03T03:51:52;99168.88;;;12.99;54.94
22753;BME280;11543;43.144;24.684;2023-05-03T03:54:17;99184.28;;;13.06;54.93
22753;BME280;11543;43.144;24.684;2023-05-03T03:56:43;99181.50;;;13.24;54.64
22753;BME280;11543;43.144;24.684;2023-05-03T03:59:10;99176.81;;;13.34;54.31
22753;BME280;11543;43.144;24.684;2023-05-03T04:01:35;99192.00;;;13.44;53.63
22753;BME280;11543;43.144;24.684;2023-05-03T04:04:01;99204.31;;;13.54;53.51
22753;BME280;11543;43.144;24.684;2023-05-03T04:06:26;99212.94;;;13.66;53.01
22753;BME280;11543;43.144;24.684;2023-05-03T04:08:53;99209.75;;;13.70;53.02
22753;BME280;11543;43.144;24.684;2023-05-03T04:11:18;99194.06;;;13.74;52.67
22753;BME280;11543;43.144;24.684;2023-05-03T04:13:45;99206.88;;;13.72;52.59
22753;BME280;11543;43.144;24.684;2023-05-03T04:16:11;99223.41;;;13.85;52.32
22753;BME280;11543;43.144;24.684;2023-05-03T04:18:36;99240.31;;;13.95;52.32
22753;BME280;11543;43.144;24.684;2023-05-03T04:21:04;99231.53;;;13.93;52.52
22753;BME280;11543;43.144;24.684;2023-05-03T04:23:33;99229.69;;;14.02;52.72
22753;BME280;11543;43.144;24.684;2023-05-03T04:25:59;99221.25;;;14.13;52.88
22753;BME280;11543;43.144;24.684;2023-05-03T04:28:25;99207.25;;;14.10;52.81
22753;BME280;11543;43.144;24.684;2023-05-03T04:30:52;99212.66;;;14.18;52.34
22753;BME280;11543;43.144;24.684;2023-05-03T04:33:20;99229.84;;;14.33;52.43
22753;BME280;11543;43.144;24.684;2023-05-03T04:35:49;99229.84;;;14.41;52.25
22753;BME280;11543;43.144;24.684;2023-05-03T04:38:15;99221.78;;;14.49;54.04
22753;BME280;11543;43.144;24.684;2023-05-03T04:40:41;99224.28;;;14.59;55.07
22753;BME280;11543;43.144;24.684;2023-05-03T04:43:07;99230.19;;;14.71;55.62
22753;BME280;11543;43.144;24.684;2023-05-03T04:45:32;99218.72;;;14.77;55.37
22753;BME280;11543;43.144;24.684;2023-05-03T04:47:58;99233.53;;;14.89;54.46
22753;BME280;11543;43.144;24.684;2023-05-03T04:50:24;99229.81;;;14.90;54.06
22753;BME280;11543;43.144;24.684;2023-05-03T04:52:50;99227.44;;;14.95;53.65
22753;BME280;11543;43.144;24.684;2023-05-03T04:55:15;99233.84;;;15.02;53.40
22753;BME280;11543;43.144;24.684;2023-05-03T04:57:41;99234.50;;;15.04;53.03
22753;BME280;11543;43.144;24.684;2023-05-03T05:00:07;99232.13;;;15.09;52.32
22753;BME280;11543;43.144;24.684;2023-05-03T05:02:35;99239.53;;;15.15;51.81
22753;BME280;11543;43.144;24.684;2023-05-03T05:05:01;99233.78;;;15.18;51.28
22753;BME280;11543;43.144;24.684;2023-05-03T05:07:29;99229.88;;;15.21;51.05
22753;BME280;11543;43.144;24.684;2023-05-03T05:09:56;99232.22;;;15.24;50.66
22753;BME280;11543;43.144;24.684;2023-05-03T05:12:22;99246.19;;;15.36;50.42
22753;BME280;11543;43.144;24.684;2023-05-03T05:14:48;99255.97;;;15.45;49.72
22753;BME280;11543;43.144;24.684;2023-05-03T05:17:13;99267.09;;;15.50;49.90
22753;BME280;11543;43.144;24.684;2023-05-03T05:19:39;99264.38;;;15.58;49.08
22753;BME280;11543;43.144;24.684;2023-05-03T05:22:04;99271.81;;;15.64;48.69
22753;BME280;11543;43.144;24.684;2023-05-03T05:24:30;99273.16;;;15.68;48.38
22753;BME280;11543;43.144;24.684;2023-05-03T05:26:57;99271.41;;;15.75;48.17
22753;BME280;11543;43.144;24.684;2023-05-03T05:29:22;99272.03;;;15.85;47.66
22753;BME280;11543;43.144;24.684;2023-05-03T05:31:48;99268.25;;;15.95;47.48
22753;BME280;11543;43.144;24.684;2023-05-03T05:34:14;99264.81;;;16.01;47.48
22753;BME280;11543;43.144;24.684;2023-05-03T05:36:39;99266.34;;;16.03;47.37
22753;BME280;11543;43.144;24.684;2023-05-03T05:39:05;99266.47;;;16.10;47.32
22753;BME280;11543;43.144;24.684;2023-05-03T05:41:30;99272.00;;;16.16;46.76
22753;BME280;11543;43.144;24.684;2023-05-03T05:43:57;99261.28;;;16.23;46.71
22753;BME280;11543;43.144;24.684;2023-05-03T05:46:23;99251.41;;;16.30;46.72
22753;BME280;11543;43.144;24.684;2023-05-03T05:48:48;99258.88;;;16.28;45.91
22753;BME280;11543;43.144;24.684;2023-05-03T05:51:15;99261.16;;;16.39;46.18
22753;BME280;11543;43.144;24.684;2023-05-03T05:53:41;99251.25;;;16.46;46.07
22753;BME280;11543;43.144;24.684;2023-05-03T05:56:07;99260.00;;;16.56;45.73
22753;BME280;11543;43.144;24.684;2023-05-03T05:58:33;99266.44;;;16.55;45.94
22753;BME280;11543;43.144;24.684;2023-05-03T06:00:59;99263.56;;;16.57;45.37
22753;BME280;11543;43.144;24.684;2023-05-03T06:03:29;99278.19;;;16.71;45.81
22753;BME280;11543;43.144;24.684;2023-05-03T06:05:56;99285.69;;;16.83;45.85
22753;BME280;11543;43.144;24.684;2023-05-03T06:08:21;99285.44;;;16.93;44.86
22753;BME280;11543;43.144;24.684;2023-05-03T06:10:47;99296.47;;;17.06;44.62
22753;BME280;11543;43.144;24.684;2023-05-03T06:13:13;99301.97;;;17.13;44.54
22753;BME280;11543;43.144;24.684;2023-05-03T06:15:39;99305.72;;;17.27;43.91
22753;BME280;11543;43.144;24.684;2023-05-03T06:18:05;99296.13;;;17.39;44.19
22753;BME280;11543;43.144;24.684;2023-05-03T06:20:31;99288.53;;;17.49;44.14
22753;BME280;11543;43.144;24.684;2023-05-03T06:22:56;99282.94;;;17.50;44.00
22753;BME280;11543;43.144;24.684;2023-05-03T06:25:22;99296.13;;;17.68;43.97
22753;BME280;11543;43.144;24.684;2023-05-03T06:27:47;99295.63;;;17.79;43.85
22753;BME280;11543;43.144;24.684;2023-05-03T06:30:13;99304.31;;;17.90;44.07
22753;BME280;11543;43.144;24.684;2023-05-03T06:32:40;99299.44;;;18.00;43.86
22753;BME280;11543;43.144;24.684;2023-05-03T06:35:06;99300.34;;;18.07;43.78
22753;BME280;11543;43.144;24.684;2023-05-03T06:37:33;99302.56;;;18.18;44.26
22753;BME280;11543;43.144;24.684;2023-05-03T06:39:59;99296.81;;;18.28;43.59
22753;BME280;11543;43.144;24.684;2023-05-03T06:42:24;99301.94;;;18.37;43.55
22753;BME280;11543;43.144;24.684;2023-05-03T06:44:50;99312.53;;;18.54;43.46
22753;BME280;11543;43.144;24.684;2023-05-03T06:47:15;99300.91;;;18.60;44.14
22753;BME280;11543;43.144;24.684;2023-05-03T06:49:41;99294.50;;;18.67;43.72
22753;BME280;11543;43.144;24.684;2023-05-03T06:52:06;99307.31;;;18.73;43.60
22753;BME280;11543;43.144;24.684;2023-05-03T06:54:32;99291.47;;;18.77;43.27
22753;BME280;11543;43.144;24.684;2023-05-03T06:56:57;99299.47;;;18.85;42.84
22753;BME280;11543;43.144;24.684;2023-05-03T06:59:23;99294.81;;;18.79;41.66
22753;BME280;11543;43.144;24.684;2023-05-03T07:01:48;99287.06;;;18.76;41.75
22753;BME280;11543;43.144;24.684;2023-05-03T07:04:15;99296.56;;;18.87;41.36
22753;BME280;11543;43.144;24.684;2023-05-03T07:06:40;99285.47;;;18.88;41.72
22753;BME280;11543;43.144;24.684;2023-05-03T07:09:06;99295.81;;;18.99;41.39
22753;BME280;11543;43.144;24.684;2023-05-03T07:11:31;99306.81;;;19.13;41.58
22753;BME280;11543;43.144;24.684;2023-05-03T07:13:58;99304.81;;;19.28;42.00
22753;BME280;11543;43.144;24.684;2023-05-03T07:16:24;99298.81;;;19.39;42.62
22753;BME280;11543;43.144;24.684;2023-05-03T07:18:50;99301.22;;;19.55;43.07
22753;BME280;11543;43.144;24.684;2023-05-03T07:21:15;99294.97;;;19.61;42.92
22753;BME280;11543;43.144;24.684;2023-05-03T07:23:41;99303.38;;;19.66;42.47
22753;BME280;11543;43.144;24.684;2023-05-03T07:26:07;99300.69;;;19.73;42.57
22753;BME280;11543;43.144;24.684;2023-05-03T07:28:32;99304.69;;;19.77;42.12
22753;BME280;11543;43.144;24.684;2023-05-03T07:30:58;99303.44;;;19.80;42.21
22753;BME280;11543;43.144;24.684;2023-05-03T07:33:24;99293.81;;;19.84;42.18
22753;BME280;11543;43.144;24.684;2023-05-03T07:35:49;99293.41;;;19.87;42.16
22753;BME280;11543;43.144;24.684;2023-05-03T07:38:15;99287.97;;;19.87;41.89
22753;BME280;11543;43.144;24.684;2023-05-03T07:40:41;99290.53;;;19.95;41.88
22753;BME280;11543;43.144;24.684;2023-05-03T07:43:08;99295.59;;;20.04;41.94
22753;BME280;11543;43.144;24.684;2023-05-03T07:45:36;99283.25;;;20.09;41.71
22753;BME280;11543;43.144;24.684;2023-05-03T07:48:02;99270.03;;;20.12;41.26
22753;BME280;11543;43.144;24.684;2023-05-03T07:50:29;99269.84;;;20.20;41.67
22753;BME280;11543;43.144;24.684;2023-05-03T07:52:54;99275.94;;;20.29;42.72
22753;BME280;11543;43.144;24.684;2023-05-03T07:55:21;99264.63;;;20.25;42.60
22753;BME280;11543;43.144;24.684;2023-05-03T07:57:47;99269.22;;;20.25;42.98
22753;BME280;11543;43.144;24.684;2023-05-03T08:00:13;99265.88;;;20.29;42.71
22753;BME280;11543;43.144;24.684;2023-05-03T08:02:41;99250.78;;;20.27;42.53
22753;BME280;11543;43.144;24.684;2023-05-03T08:05:07;99237.81;;;20.29;43.04
22753;BME280;11543;43.144;24.684;2023-05-03T08:07:33;99232.75;;;20.19;43.09
22753;BME280;11543;43.144;24.684;2023-05-03T08:09:59;99229.81;;;20.14;43.04
22753;BME280;11543;43.144;24.684;2023-05-03T08:12:26;99227.31;;;20.19;43.76
22753;BME280;11543;43.144;24.684;2023-05-03T08:14:52;99237.78;;;20.22;43.58
22753;BME280;11543;43.144;24.684;2023-05-03T08:17:18;99247.00;;;20.21;43.24
22753;BME280;11543;43.144;24.684;2023-05-03T08:19:45;99244.69;;;20.18;42.85
22753;BME280;11543;43.144;24.684;2023-05-03T08:22:11;99249.31;;;20.11;42.71
22753;BME280;11543;43.144;24.684;2023-05-03T08:24:37;99258.31;;;20.05;42.30
22753;BME280;11543;43.144;24.684;2023-05-03T08:27:04;99259.97;;;20.06;41.36
22753;BME280;11543;43.144;24.684;2023-05-03T08:29:30;99251.16;;;19.97;41.15
22753;BME280;11543;43.144;24.684;2023-05-03T08:31:56;99251.94;;;19.85;41.39
22753;BME280;11543;43.144;24.684;2023-05-03T08:34:22;99250.84;;;19.72;41.64
22753;BME280;11543;43.144;24.684;2023-05-03T08:36:48;99256.47;;;19.64;41.93
22753;BME280;11543;43.144;24.684;2023-05-03T08:39:13;99262.53;;;19.66;42.32
22753;BME280;11543;43.144;24.684;2023-05-03T08:41:39;99264.22;;;19.67;42.84
22753;BME280;11543;43.144;24.684;2023-05-03T08:44:06;99273.25;;;19.75;42.93
22753;BME280;11543;43.144;24.684;2023-05-03T08:46:32;99270.34;;;19.83;43.20
22753;BME280;11543;43.144;24.684;2023-05-03T08:49:01;99262.22;;;19.89;43.58
22753;BME280;11543;43.144;24.684;2023-05-03T08:51:27;99267.75;;;20.09;42.53
22753;BME280;11543;43.144;24.684;2023-05-03T08:53:53;99263.34;;;20.21;42.36
22753;BME280;11543;43.144;24.684;2023-05-03T08:56:29;99269.91;;;20.40;41.92
22753;BME280;11543;43.144;24.684;2023-05-03T08:58:55;99267.63;;;20.63;41.79
22753;BME280;11543;43.144;24.684;2023-05-03T09:01:22;99282.34;;;20.82;41.70
22753;BME280;11543;43.144;24.684;2023-05-03T09:03:49;99276.44;;;20.98;40.89
22753;BME280;11543;43.144;24.684;2023-05-03T09:06:22;99281.88;;;21.12;40.79
22753;BME280;11543;43.144;24.684;2023-05-03T09:08:52;99262.56;;;21.20;41.07
22753;BME280;11543;43.144;24.684;2023-05-03T09:11:26;99269.25;;;21.37;40.80
22753;BME280;11543;43.144;24.684;2023-05-03T09:13:52;99268.78;;;21.53;40.81
22753;BME280;11543;43.144;24.684;2023-05-03T09:16:24;99268.72;;;21.67;40.58
22753;BME280;11543;43.144;24.684;2023-05-03T09:19:05;99269.50;;;21.87;38.51
22753;BME280;11543;43.144;24.684;2023-05-03T09:21:34;99273.84;;;22.01;38.92
22753;BME280;11543;43.144;24.684;2023-05-03T09:24:20;99279.63;;;22.24;38.47
22753;BME280;11543;43.144;24.684;2023-05-03T09:26:49;99276.59;;;22.39;38.01
22753;BME280;11543;43.144;24.684;2023-05-03T09:29:32;99277.44;;;22.71;36.76
22753;BME280;11543;43.144;24.684;2023-05-03T09:32:04;99267.72;;;22.75;37.37
22753;BME280;11543;43.144;24.684;2023-05-03T09:34:30;99268.69;;;22.87;38.07
22753;BME280;11543;43.144;24.684;2023-05-03T09:36:57;99261.09;;;22.90;37.80
22753;BME280;11543;43.144;24.684;2023-05-03T09:39:22;99249.69;;;22.93;37.38
22753;BME280;11543;43.144;24.684;2023-05-03T09:41:48;99245.59;;;23.02;37.19
22753;BME280;11543;43.144;24.684;2023-05-03T09:44:14;99247.59;;;23.13;37.22
22753;BME280;11543;43.144;24.684;2023-05-03T09:47:06;99242.06;;;23.19;37.20
22753;BME280;11543;43.144;24.684;2023-05-03T09:49:32;99246.09;;;23.35;37.25
22753;BME280;11543;43.144;24.684;2023-05-03T09:52:02;99238.56;;;23.31;37.46
22753;BME280;11543;43.144;24.684;2023-05-03T09:54:28;99241.09;;;23.50;37.76
22753;BME280;11543;43.144;24.684;2023-05-03T09:56:59;99227.63;;;23.49;38.80
22753;BME280;11543;43.144;24.684;2023-05-03T09:59:27;99226.91;;;23.60;38.04
22753;BME280;11543;43.144;24.684;2023-05-03T10:01:55;99219.03;;;23.82;37.97
22753;BME280;11543;43.144;24.684;2023-05-03T10:04:25;99216.69;;;23.97;37.74
22753;BME280;11543;43.144;24.684;2023-05-03T10:06:53;99206.94;;;24.01;37.50
22753;BME280;11543;43.144;24.684;2023-05-03T10:09:27;99216.88;;;24.14;37.49
22753;BME280;11543;43.144;24.684;2023-05-03T10:11:58;99215.81;;;24.15;38.26
22753;BME280;11543;43.144;24.684;2023-05-03T10:14:24;99208.53;;;24.39;37.47
22753;BME280;11543;43.144;24.684;2023-05-03T10:17:03;99207.34;;;24.58;37.31
22753;BME280;11543;43.144;24.684;2023-05-03T10:22:09;99195.06;;;24.96;37.13
22753;BME280;11543;43.144;24.684;2023-05-03T10:25:05;99198.22;;;25.23;36.94
22753;BME280;11543;43.144;24.684;2023-05-03T10:27:22;99195.50;;;25.51;36.91
22753;BME280;11543;43.144;24.684;2023-05-03T10:29:49;99195.47;;;25.75;36.39
22753;BME280;11543;43.144;24.684;2023-05-03T10:34:59;99193.31;;;26.50;34.75
22753;BME280;11543;43.144;24.684;2023-05-03T10:37:26;99177.19;;;26.76;34.18
22753;BME280;11543;43.144;24.684;2023-05-03T10:39:53;99171.44;;;26.94;33.25
22753;BME280;11543;43.144;24.684;2023-05-03T10:42:21;99169.44;;;27.06;33.64
22753;BME280;11543;43.144;24.684;2023-05-03T10:47:19;99162.41;;;27.15;34.05
22753;BME280;11543;43.144;24.684;2023-05-03T10:49:46;99165.34;;;27.31;33.28
22753;BME280;11543;43.144;24.684;2023-05-03T10:55:08;99180.09;;;27.63;33.25
22753;BME280;11543;43.144;24.684;2023-05-03T10:57:36;99162.16;;;27.82;33.20
22753;BME280;11543;43.144;24.684;2023-05-03T11:00:03;99154.88;;;27.98;33.16
22753;BME280;11543;43.144;24.684;2023-05-03T11:02:35;99149.09;;;28.00;33.15
22753;BME280;11543;43.144;24.684;2023-05-03T11:05:05;99143.94;;;27.81;33.05
22753;BME280;11543;43.144;24.684;2023-05-03T11:07:33;99141.88;;;27.50;34.39
22753;BME280;11543;43.144;24.684;2023-05-03T11:09:58;99143.94;;;27.38;35.16
22753;BME280;11543;43.144;24.684;2023-05-03T11:12:24;99149.91;;;27.29;34.42
22753;BME280;11543;43.144;24.684;2023-05-03T11:14:49;99141.66;;;27.29;34.01
22753;BME280;11543;43.144;24.684;2023-05-03T11:17:15;99148.69;;;27.20;34.54
22753;BME280;11543;43.144;24.684;2023-05-03T11:19:45;99150.34;;;27.21;34.36
22753;BME280;11543;43.144;24.684;2023-05-03T11:22:10;99153.56;;;26.96;34.94
22753;BME280;11543;43.144;24.684;2023-05-03T11:24:37;99145.84;;;26.60;34.52
22753;BME280;11543;43.144;24.684;2023-05-03T11:27:02;99144.75;;;26.61;36.01
22753;BME280;11543;43.144;24.684;2023-05-03T11:29:28;99138.44;;;26.60;36.36
22753;BME280;11543;43.144;24.684;2023-05-03T11:31:54;99134.16;;;26.70;35.45
22753;BME280;11543;43.144;24.684;2023-05-03T11:34:19;99134.41;;;26.68;35.27
22753;BME280;11543;43.144;24.684;2023-05-03T11:36:45;99135.47;;;26.84;35.22
22753;BME280;11543;43.144;24.684;2023-05-03T11:39:13;99141.81;;;27.01;34.99
22753;BME280;11543;43.144;24.684;2023-05-03T11:41:40;99132.16;;;27.20;34.74
22753;BME280;11543;43.144;24.684;2023-05-03T11:44:06;99124.09;;;27.36;34.15
22753;BME280;11543;43.144;24.684;2023-05-03T11:46:35;99110.38;;;27.41;34.26
22753;BME280;11543;43.144;24.684;2023-05-03T11:49:01;99121.50;;;27.51;33.87
22753;BME280;11543;43.144;24.684;2023-05-03T11:51:27;99116.72;;;27.63;33.64
22753;BME280;11543;43.144;24.684;2023-05-03T11:53:54;99095.09;;;27.77;33.34
22753;BME280;11543;43.144;24.684;2023-05-03T11:56:20;99102.00;;;27.79;33.55
22753;BME280;11543;43.144;24.684;2023-05-03T12:01:18;99109.84;;;27.66;33.37
22753;BME280;11543;43.144;24.684;2023-05-03T12:03:43;99101.13;;;27.52;34.11
22753;BME280;11543;43.144;24.684;2023-05-03T12:06:12;99099.06;;;27.64;34.14
22753;BME280;11543;43.144;24.684;2023-05-03T12:08:37;99097.84;;;27.55;34.82
22753;BME280;11543;43.144;24.684;2023-05-03T12:11:05;99096.00;;;27.39;34.57
22753;BME280;11543;43.144;24.684;2023-05-03T12:13:35;99094.75;;;27.24;34.60
22753;BME280;11543;43.144;24.684;2023-05-03T12:16:02;99098.28;;;27.20;35.21
22753;BME280;11543;43.144;24.684;2023-05-03T12:18:51;99087.97;;;27.10;35.25
22753;BME280;11543;43.144;24.684;2023-05-03T12:21:21;99084.50;;;26.98;35.48
22753;BME280;11543;43.144;24.684;2023-05-03T12:23:47;99082.16;;;26.90;35.44
22753;BME280;11543;43.144;24.684;2023-05-03T12:26:18;99077.31;;;26.80;35.23
22753;BME280;11543;43.144;24.684;2023-05-03T12:28:49;99066.00;;;26.77;35.33
22753;BME280;11543;43.144;24.684;2023-05-03T12:31:15;99063.75;;;26.74;35.96
22753;BME280;11543;43.144;24.684;2023-05-03T12:33:41;99061.00;;;26.74;35.91
22753;BME280;11543;43.144;24.684;2023-05-03T12:36:07;99060.34;;;26.66;35.99
22753;BME280;11543;43.144;24.684;2023-05-03T12:38:34;99041.34;;;26.65;36.39
22753;BME280;11543;43.144;24.684;2023-05-03T12:41:00;99036.34;;;26.84;34.80
22753;BME280;11543;43.144;24.684;2023-05-03T12:43:26;99029.91;;;26.95;36.08
22753;BME280;11543;43.144;24.684;2023-05-03T12:45:51;99032.75;;;27.00;35.34
22753;BME280;11543;43.144;24.684;2023-05-03T12:48:17;99019.06;;;27.05;34.35
22753;BME280;11543;43.144;24.684;2023-05-03T12:50:42;99015.47;;;27.32;33.45
22753;BME280;11543;43.144;24.684;2023-05-03T12:53:08;99014.97;;;27.62;32.81
22753;BME280;11543;43.144;24.684;2023-05-03T12:55:33;99004.59;;;27.74;32.28
22753;BME280;11543;43.144;24.684;2023-05-03T12:58:00;99004.56;;;28.01;31.94
22753;BME280;11543;43.144;24.684;2023-05-03T13:00:25;99002.22;;;28.19;33.12
22753;BME280;11543;43.144;24.684;2023-05-03T13:02:51;99000.41;;;28.35;32.19
22753;BME280;11543;43.144;24.684;2023-05-03T13:05:17;99005.50;;;28.59;31.55
22753;BME280;11543;43.144;24.684;2023-05-03T13:07:43;99000.72;;;28.86;30.91
22753;BME280;11543;43.144;24.684;2023-05-03T13:10:08;98997.75;;;29.13;30.73